sensor_id;sensor_type;location;lat;lon;timestamp;temperature;humidity
75164;HTU21D;63746;45.402;37.922;2023-09-30T00:01:22;20.17;41.23
75164;HTU21D;63746;45.402;37.922;2023-09-30T00:03:48;20.14;41.22
75164;HTU21D;63746;45.402;37.922;2023-09-30T00:06:14;20.12;41.26
75164;HTU21D;63746;45.402;37.922;2023-09-30T00:08:40;20.11;41.25
75164;HTU21D;63746;45.402;37.922;2023-09-30T00:11:07;20.09;41.25
75164;HTU21D;63746;45.402;37.922;2023-09-30T00:13:33;20.05;41.26
75164;HTU21D;63746;45.402;37.922;2023-09-30T00:15:59;20.03;41.26
75164;HTU21D;63746;45.402;37.922;2023-09-30T00:18:25;20.02;41.28
75164;HTU21D;63746;45.402;37.922;2023-09-30T00:20:52;20.00;41.26
75164;HTU21D;63746;45.402;37.922;2023-09-30T00:23:18;19.97;41.29
75164;HTU21D;63746;45.402;37.922;2023-09-30T00:25:47;19.96;41.30
75164;HTU21D;63746;45.402;37.922;2023-09-30T00:28:15;19.95;41.45
75164;HTU21D;63746;45.402;37.922;2023-09-30T00:30:41;19.90;41.36
75164;HTU21D;63746;45.402;37.922;2023-09-30T00:33:09;19.88;41.33
75164;HTU21D;63746;45.402;37.922;2023-09-30T00:35:35;19.83;41.36
75164;HTU21D;63746;45.402;37.922;2023-09-30T00:38:02;19.81;41.38
75164;HTU21D;63746;45.402;37.922;2023-09-30T00:40:28;19.79;41.37
75164;HTU21D;63746;45.402;37.922;2023-09-30T00:42:54;19.76;41.39
75164;HTU21D;63746;45.402;37.922;2023-09-30T00:45:21;19.75;41.39
75164;HTU21D;63746;45.402;37.922;2023-09-30T00:47:47;19.72;41.39
75164;HTU21D;63746;45.402;37.922;2023-09-30T00:50:15;19.69;41.40
75164;HTU21D;63746;45.402;37.922;2023-09-30T00:52:42;19.66;41.41
75164;HTU21D;63746;45.402;37.922;2023-09-30T00:55:09;19.63;41.44
75164;HTU21D;63746;45.402;37.922;2023-09-30T00:57:37;19.60;41.46
75164;HTU21D;63746;45.402;37.922;2023-09-30T01:00:05;19.59;41.47
75164;HTU21D;63746;45.402;37.922;2023-09-30T01:02:32;19.58;41.45
75164;HTU21D;63746;45.402;37.922;2023-09-30T01:05:01;19.56;41.47
75164;HTU21D;63746;45.402;37.922;2023-09-30T01:07:27;19.53;41.49
75164;HTU21D;63746;45.402;37.922;2023-09-30T01:09:52;19.52;41.50
75164;HTU21D;63746;45.402;37.922;2023-09-30T01:12:19;19.50;41.52
75164;HTU21D;63746;45.402;37.922;2023-09-30T01:14:45;19.47;41.52
75164;HTU21D;63746;45.402;37.922;2023-09-30T01:17:11;19.44;41.55
75164;HTU21D;63746;45.402;37.922;2023-09-30T01:19:40;19.42;41.54
75164;HTU21D;63746;45.402;37.922;2023-09-30T01:22:08;19.40;41.55
75164;HTU21D;63746;45.402;37.922;2023-09-30T01:24:39;19.38;41.58
75164;HTU21D;63746;45.402;37.922;2023-09-30T01:27:07;19.35;41.60
75164;HTU21D;63746;45.402;37.922;2023-09-30T01:29:33;19.32;41.60
75164;HTU21D;63746;45.402;37.922;2023-09-30T01:31:59;19.29;41.62
75164;HTU21D;63746;45.402;37.922;2023-09-30T01:34:25;19.26;41.63
75164;HTU21D;63746;45.402;37.922;2023-09-30T01:36:51;19.24;41.68
75164;HTU21D;63746;45.402;37.922;2023-09-30T01:39:16;19.23;41.67
75164;HTU21D;63746;45.402;37.922;2023-09-30T01:41:43;19.24;41.67
75164;HTU21D;63746;45.402;37.922;2023-09-30T01:44:09;19.22;41.67
75164;HTU21D;63746;45.402;37.922;2023-09-30T01:46:36;19.20;41.66
75164;HTU21D;63746;45.402;37.922;2023-09-30T01:49:02;19.16;41.67
75164;HTU21D;63746;45.402;37.922;2023-09-30T01:51:30;19.14;41.68
75164;HTU21D;63746;45.402;37.922;2023-09-30T01:53:57;19.12;41.69
75164;HTU21D;63746;45.402;37.922;2023-09-30T01:56:24;19.09;41.69
75164;HTU21D;63746;45.402;37.922;2023-09-30T01:58:50;19.07;41.71
75164;HTU21D;63746;45.402;37.922;2023-09-30T02:01:16;19.05;41.73
75164;HTU21D;63746;45.402;37.922;2023-09-30T02:03:42;19.02;41.74
75164;HTU21D;63746;45.402;37.922;2023-09-30T02:06:08;19.01;41.75
75164;HTU21D;63746;45.402;37.922;2023-09-30T02:08:34;19.00;41.74
75164;HTU21D;63746;45.402;37.922;2023-09-30T02:11:02;18.96;42.11
75164;HTU21D;63746;45.402;37.922;2023-09-30T02:13:34;18.94;41.85
75164;HTU21D;63746;45.402;37.922;2023-09-30T02:16:03;18.91;41.83
75164;HTU21D;63746;45.402;37.922;2023-09-30T02:18:29;18.88;41.85
75164;HTU21D;63746;45.402;37.922;2023-09-30T02:20:58;18.85;41.85
75164;HTU21D;63746;45.402;37.922;2023-09-30T02:23:25;18.84;41.84
75164;HTU21D;63746;45.402;37.922;2023-09-30T02:25:51;18.81;41.85
75164;HTU21D;63746;45.402;37.922;2023-09-30T02:28:17;18.79;41.86
75164;HTU21D;63746;45.402;37.922;2023-09-30T02:30:44;18.78;41.86
75164;HTU21D;63746;45.402;37.922;2023-09-30T02:33:10;18.78;41.90
75164;HTU21D;63746;45.402;37.922;2023-09-30T02:35:36;18.78;41.88
75164;HTU21D;63746;45.402;37.922;2023-09-30T02:38:04;18.78;41.86
75164;HTU21D;63746;45.402;37.922;2023-09-30T02:40:31;18.74;41.87
75164;HTU21D;63746;45.402;37.922;2023-09-30T02:42:57;18.71;41.87
75164;HTU21D;63746;45.402;37.922;2023-09-30T02:45:23;18.70;41.88
75164;HTU21D;63746;45.402;37.922;2023-09-30T02:47:50;18.66;41.90
75164;HTU21D;63746;45.402;37.922;2023-09-30T02:50:16;18.65;41.94
75164;HTU21D;63746;45.402;37.922;2023-09-30T02:52:42;18.61;41.94
75164;HTU21D;63746;45.402;37.922;2023-09-30T02:55:10;18.58;41.96
75164;HTU21D;63746;45.402;37.922;2023-09-30T02:57:36;18.56;41.98
75164;HTU21D;63746;45.402;37.922;2023-09-30T03:00:04;18.53;41.97
75164;HTU21D;63746;45.402;37.922;2023-09-30T03:02:50;18.50;42.00
75164;HTU21D;63746;45.402;37.922;2023-09-30T03:05:17;18.47;41.99
75164;HTU21D;63746;45.402;37.922;2023-09-30T03:07:44;18.43;42.02
75164;HTU21D;63746;45.402;37.922;2023-09-30T03:10:11;18.42;42.02
75164;HTU21D;63746;45.402;37.922;2023-09-30T03:12:47;18.40;42.07
75164;HTU21D;63746;45.402;37.922;2023-09-30T03:15:13;18.39;42.05
75164;HTU21D;63746;45.402;37.922;2023-09-30T03:17:40;18.36;42.07
75164;HTU21D;63746;45.402;37.922;2023-09-30T03:20:08;18.36;42.08
75164;HTU21D;63746;45.402;37.922;2023-09-30T03:22:41;18.34;42.13
75164;HTU21D;63746;45.402;37.922;2023-09-30T03:25:14;18.30;42.09
75164;HTU21D;63746;45.402;37.922;2023-09-30T03:27:41;18.28;42.10
75164;HTU21D;63746;45.402;37.922;2023-09-30T03:30:08;18.27;42.13
75164;HTU21D;63746;45.402;37.922;2023-09-30T03:32:35;18.26;42.14
75164;HTU21D;63746;45.402;37.922;2023-09-30T03:35:05;18.23;42.15
75164;HTU21D;63746;45.402;37.922;2023-09-30T03:37:32;18.22;42.15
75164;HTU21D;63746;45.402;37.922;2023-09-30T03:39:58;18.20;42.18
75164;HTU21D;63746;45.402;37.922;2023-09-30T03:42:24;18.19;42.20
75164;HTU21D;63746;45.402;37.922;2023-09-30T03:44:50;18.18;42.19
75164;HTU21D;63746;45.402;37.922;2023-09-30T03:47:19;18.17;42.23
75164;HTU21D;63746;45.402;37.922;2023-09-30T03:49:45;18.13;42.26
75164;HTU21D;63746;45.402;37.922;2023-09-30T03:52:13;18.18;42.26
75164;HTU21D;63746;45.402;37.922;2023-09-30T03:54:39;18.18;42.27
75164;HTU21D;63746;45.402;37.922;2023-09-30T03:57:07;18.17;42.27
75164;HTU21D;63746;45.402;37.922;2023-09-30T03:59:33;18.15;42.26
75164;HTU21D;63746;45.402;37.922;2023-09-30T04:01:59;18.15;42.26
75164;HTU21D;63746;45.402;37.922;2023-09-30T04:04:26;18.17;42.29
75164;HTU21D;63746;45.402;37.922;2023-09-30T04:06:52;18.17;42.29
75164;HTU21D;63746;45.402;37.922;2023-09-30T04:09:18;18.17;42.28
75164;HTU21D;63746;45.402;37.922;2023-09-30T04:11:44;18.17;42.31
75164;HTU21D;63746;45.402;37.922;2023-09-30T04:14:12;18.15;42.33
75164;HTU21D;63746;45.402;37.922;2023-09-30T04:16:38;18.15;42.35
75164;HTU21D;63746;45.402;37.922;2023-09-30T04:19:04;18.15;42.36
75164;HTU21D;63746;45.402;37.922;2023-09-30T04:21:30;18.18;42.39
75164;HTU21D;63746;45.402;37.922;2023-09-30T04:24:00;18.18;42.40
75164;HTU21D;63746;45.402;37.922;2023-09-30T04:26:26;18.19;42.40
75164;HTU21D;63746;45.402;37.922;2023-09-30T04:28:52;18.20;42.45
75164;HTU21D;63746;45.402;37.922;2023-09-30T04:31:19;18.22;42.40
75164;HTU21D;63746;45.402;37.922;2023-09-30T04:33:48;18.24;42.44
75164;HTU21D;63746;45.402;37.922;2023-09-30T04:36:14;18.25;42.42
75164;HTU21D;63746;45.402;37.922;2023-09-30T04:38:40;18.27;42.47
75164;HTU21D;63746;45.402;37.922;2023-09-30T04:41:06;18.29;42.43
75164;HTU21D;63746;45.402;37.922;2023-09-30T04:43:34;18.33;42.45
75164;HTU21D;63746;45.402;37.922;2023-09-30T04:46:00;18.35;42.44
75164;HTU21D;63746;45.402;37.922;2023-09-30T04:48:26;18.39;42.43
75164;HTU21D;63746;45.402;37.922;2023-09-30T04:50:53;18.43;42.45
75164;HTU21D;63746;45.402;37.922;2023-09-30T04:53:19;18.49;42.48
75164;HTU21D;63746;45.402;37.922;2023-09-30T04:55:45;18.54;42.45
75164;HTU21D;63746;45.402;37.922;2023-09-30T04:58:11;18.59;42.45
75164;HTU21D;63746;45.402;37.922;2023-09-30T05:00:38;18.66;42.46
75164;HTU21D;63746;45.402;37.922;2023-09-30T05:03:05;18.74;42.48
75164;HTU21D;63746;45.402;37.922;2023-09-30T05:05:31;18.81;42.43
75164;HTU21D;63746;45.402;37.922;2023-09-30T05:07:57;18.89;42.44
75164;HTU21D;63746;45.402;37.922;2023-09-30T05:10:24;18.99;42.45
75164;HTU21D;63746;45.402;37.922;2023-09-30T05:12:50;19.09;42.44
75164;HTU21D;63746;45.402;37.922;2023-09-30T05:15:21;19.18;42.38
75164;HTU21D;63746;45.402;37.922;2023-09-30T05:17:48;19.29;42.34
75164;HTU21D;63746;45.402;37.922;2023-09-30T05:20:15;19.38;42.31
75164;HTU21D;63746;45.402;37.922;2023-09-30T05:22:43;19.48;42.25
75164;HTU21D;63746;45.402;37.922;2023-09-30T05:25:15;19.58;42.26
75164;HTU21D;63746;45.402;37.922;2023-09-30T05:27:45;19.70;42.21
75164;HTU21D;63746;45.402;37.922;2023-09-30T05:30:13;19.80;42.14
75164;HTU21D;63746;45.402;37.922;2023-09-30T05:32:41;19.89;42.12
75164;HTU21D;63746;45.402;37.922;2023-09-30T05:35:08;20.00;42.08
75164;HTU21D;63746;45.402;37.922;2023-09-30T05:37:43;20.11;42.06
75164;HTU21D;63746;45.402;37.922;2023-09-30T05:40:10;20.17;42.59
75164;HTU21D;63746;45.402;37.922;2023-09-30T05:42:48;20.28;42.05
75164;HTU21D;63746;45.402;37.922;2023-09-30T05:45:15;20.35;41.98
75164;HTU21D;63746;45.402;37.922;2023-09-30T05:47:41;20.43;41.94
75164;HTU21D;63746;45.402;37.922;2023-09-30T05:50:08;20.54;41.91
75164;HTU21D;63746;45.402;37.922;2023-09-30T05:52:35;20.63;41.89
75164;HTU21D;63746;45.402;37.922;2023-09-30T05:55:02;20.75;41.84
75164;HTU21D;63746;45.402;37.922;2023-09-30T05:57:28;20.86;41.75
75164;HTU21D;63746;45.402;37.922;2023-09-30T05:59:54;20.95;41.71
75164;HTU21D;63746;45.402;37.922;2023-09-30T06:02:20;21.04;41.62
75164;HTU21D;63746;45.402;37.922;2023-09-30T06:04:46;21.13;41.60
75164;HTU21D;63746;45.402;37.922;2023-09-30T06:07:12;21.22;41.58
75164;HTU21D;63746;45.402;37.922;2023-09-30T06:09:39;21.31;41.54
75164;HTU21D;63746;45.402;37.922;2023-09-30T06:12:05;21.42;41.50
75164;HTU21D;63746;45.402;37.922;2023-09-30T06:14:32;21.50;41.45
75164;HTU21D;63746;45.402;37.922;2023-09-30T06:16:58;21.60;41.44
75164;HTU21D;63746;45.402;37.922;2023-09-30T06:19:24;21.67;41.39
75164;HTU21D;63746;45.402;37.922;2023-09-30T06:21:52;21.77;41.36
75164;HTU21D;63746;45.402;37.922;2023-09-30T06:24:18;21.84;41.32
75164;HTU21D;63746;45.402;37.922;2023-09-30T06:26:47;21.94;41.33
75164;HTU21D;63746;45.402;37.922;2023-09-30T06:29:14;22.06;41.29
75164;HTU21D;63746;45.402;37.922;2023-09-30T06:31:40;22.17;41.24
75164;HTU21D;63746;45.402;37.922;2023-09-30T06:34:06;22.25;41.17
75164;HTU21D;63746;45.402;37.922;2023-09-30T06:36:32;22.35;41.14
75164;HTU21D;63746;45.402;37.922;2023-09-30T06:38:58;22.42;41.10
75164;HTU21D;63746;45.402;37.922;2023-09-30T06:41:24;22.52;41.06
75164;HTU21D;63746;45.402;37.922;2023-09-30T06:43:51;22.60;41.05
75164;HTU21D;63746;45.402;37.922;2023-09-30T06:46:17;22.69;41.00
75164;HTU21D;63746;45.402;37.922;2023-09-30T06:48:43;22.79;41.00
75164;HTU21D;63746;45.402;37.922;2023-09-30T06:51:14;22.90;41.05
75164;HTU21D;63746;45.402;37.922;2023-09-30T06:53:40;22.99;40.95
75164;HTU21D;63746;45.402;37.922;2023-09-30T06:56:07;23.09;40.87
75164;HTU21D;63746;45.402;37.922;2023-09-30T06:58:32;23.16;40.84
75164;HTU21D;63746;45.402;37.922;2023-09-30T07:00:59;23.26;40.82
75164;HTU21D;63746;45.402;37.922;2023-09-30T07:03:25;23.32;40.78
75164;HTU21D;63746;45.402;37.922;2023-09-30T07:05:50;23.39;40.75
75164;HTU21D;63746;45.402;37.922;2023-09-30T07:08:17;23.47;40.76
75164;HTU21D;63746;45.402;37.922;2023-09-30T07:10:44;23.58;40.71
75164;HTU21D;63746;45.402;37.922;2023-09-30T07:13:12;23.66;40.64
75164;HTU21D;63746;45.402;37.922;2023-09-30T07:15:38;23.71;40.60
75164;HTU21D;63746;45.402;37.922;2023-09-30T07:18:04;23.76;40.57
75164;HTU21D;63746;45.402;37.922;2023-09-30T07:20:30;23.85;40.60
75164;HTU21D;63746;45.402;37.922;2023-09-30T07:22:59;0.00;40.71
75164;HTU21D;63746;45.402;37.922;2023-09-30T07:25:25;23.97;40.50
75164;HTU21D;63746;45.402;37.922;2023-09-30T07:27:51;24.01;40.55
75164;HTU21D;63746;45.402;37.922;2023-09-30T07:30:17;24.08;40.50
75164;HTU21D;63746;45.402;37.922;2023-09-30T07:32:44;24.15;40.47
75164;HTU21D;63746;45.402;37.922;2023-09-30T07:35:11;24.21;40.43
75164;HTU21D;63746;45.402;37.922;2023-09-30T07:37:39;24.28;40.40
75164;HTU21D;63746;45.402;37.922;2023-09-30T07:40:06;24.35;40.36
75164;HTU21D;63746;45.402;37.922;2023-09-30T07:42:32;24.43;40.33
75164;HTU21D;63746;45.402;37.922;2023-09-30T07:44:59;24.48;40.26
75164;HTU21D;63746;45.402;37.922;2023-09-30T07:47:25;24.51;40.23
75164;HTU21D;63746;45.402;37.922;2023-09-30T07:49:51;24.55;40.22
75164;HTU21D;63746;45.402;37.922;2023-09-30T07:52:17;24.61;40.24
75164;HTU21D;63746;45.402;37.922;2023-09-30T07:54:43;24.66;40.24
75164;HTU21D;63746;45.402;37.922;2023-09-30T07:57:09;24.74;40.25
75164;HTU21D;63746;45.402;37.922;2023-09-30T07:59:35;24.85;40.22
75164;HTU21D;63746;45.402;37.922;2023-09-30T08:02:01;24.91;40.17
75164;HTU21D;63746;45.402;37.922;2023-09-30T08:04:30;25.00;40.10
75164;HTU21D;63746;45.402;37.922;2023-09-30T08:06:56;25.08;40.09
75164;HTU21D;63746;45.402;37.922;2023-09-30T08:09:23;25.14;40.04
75164;HTU21D;63746;45.402;37.922;2023-09-30T08:11:50;25.21;39.99
75164;HTU21D;63746;45.402;37.922;2023-09-30T08:14:18;25.24;39.97
75164;HTU21D;63746;45.402;37.922;2023-09-30T08:16:44;25.31;39.90
75164;HTU21D;63746;45.402;37.922;2023-09-30T08:19:10;25.32;39.88
75164;HTU21D;63746;45.402;37.922;2023-09-30T08:21:36;25.35;39.91
75164;HTU21D;63746;45.402;37.922;2023-09-30T08:24:02;25.43;39.90
75164;HTU21D;63746;45.402;37.922;2023-09-30T08:26:29;25.46;39.86
75164;HTU21D;63746;45.402;37.922;2023-09-30T08:28:55;25.51;39.84
75164;HTU21D;63746;45.402;37.922;2023-09-30T08:31:21;25.53;39.77
75164;HTU21D;63746;45.402;37.922;2023-09-30T08:33:47;25.58;39.81
75164;HTU21D;63746;45.402;37.922;2023-09-30T08:36:13;25.64;39.80
75164;HTU21D;63746;45.402;37.922;2023-09-30T08:38:40;25.69;39.77
75164;HTU21D;63746;45.402;37.922;2023-09-30T08:41:07;25.79;39.76
75164;HTU21D;63746;45.402;37.922;2023-09-30T08:43:38;25.86;39.59
75164;HTU21D;63746;45.402;37.922;2023-09-30T08:46:05;25.90;39.61
75164;HTU21D;63746;45.402;37.922;2023-09-30T08:48:34;25.95;39.50
75164;HTU21D;63746;45.402;37.922;2023-09-30T08:51:02;25.99;39.52
75164;HTU21D;63746;45.402;37.922;2023-09-30T08:53:31;26.04;39.36
75164;HTU21D;63746;45.402;37.922;2023-09-30T08:55:58;26.08;39.49
75164;HTU21D;63746;45.402;37.922;2023-09-30T08:58:29;26.15;39.44
75164;HTU21D;63746;45.402;37.922;2023-09-30T09:00:55;26.22;39.47
75164;HTU21D;63746;45.402;37.922;2023-09-30T09:03:22;26.30;39.38
75164;HTU21D;63746;45.402;37.922;2023-09-30T09:05:57;26.34;39.11
75164;HTU21D;63746;45.402;37.922;2023-09-30T09:08:26;26.38;39.33
75164;HTU21D;63746;45.402;37.922;2023-09-30T09:10:57;26.45;39.18
75164;HTU21D;63746;45.402;37.922;2023-09-30T09:13:27;26.51;39.14
75164;HTU21D;63746;45.402;37.922;2023-09-30T09:16:06;26.55;38.91
75164;HTU21D;63746;45.402;37.922;2023-09-30T09:18:33;26.62;39.17
75164;HTU21D;63746;45.402;37.922;2023-09-30T09:21:14;26.64;38.87
75164;HTU21D;63746;45.402;37.922;2023-09-30T09:23:45;26.70;39.05
75164;HTU21D;63746;45.402;37.922;2023-09-30T09:26:30;26.78;38.82
75164;HTU21D;63746;45.402;37.922;2023-09-30T09:29:01;26.90;39.14
75164;HTU21D;63746;45.402;37.922;2023-09-30T09:31:29;26.97;39.04
75164;HTU21D;63746;45.402;37.922;2023-09-30T09:33:55;27.06;39.01
75164;HTU21D;63746;45.402;37.922;2023-09-30T09:36:41;27.12;38.53
75164;HTU21D;63746;45.402;37.922;2023-09-30T09:39:07;27.17;38.92
75164;HTU21D;63746;45.402;37.922;2023-09-30T09:41:52;27.23;38.40
75164;HTU21D;63746;45.402;37.922;2023-09-30T09:44:22;27.28;38.72
75164;HTU21D;63746;45.402;37.922;2023-09-30T09:46:49;27.34;38.86
75164;HTU21D;63746;45.402;37.922;2023-09-30T09:49:19;27.41;38.70
75164;HTU21D;63746;45.402;37.922;2023-09-30T09:51:47;27.45;38.77
75164;HTU21D;63746;45.402;37.922;2023-09-30T09:54:16;27.50;38.59
75164;HTU21D;63746;45.402;37.922;2023-09-30T09:56:46;27.50;38.53
75164;HTU21D;63746;45.402;37.922;2023-09-30T09:59:12;27.52;38.67
75164;HTU21D;63746;45.402;37.922;2023-09-30T10:01:42;27.53;38.56
75164;HTU21D;63746;45.402;37.922;2023-09-30T10:04:11;27.55;38.67
75164;HTU21D;63746;45.402;37.922;2023-09-30T10:06:37;27.59;38.69
75164;HTU21D;63746;45.402;37.922;2023-09-30T10:09:09;27.63;38.62
75164;HTU21D;63746;45.402;37.922;2023-09-30T10:11:36;27.66;38.65
75164;HTU21D;63746;45.402;37.922;2023-09-30T10:14:03;27.69;38.65
75164;HTU21D;63746;45.402;37.922;2023-09-30T10:19:12;27.78;38.29
75164;HTU21D;63746;45.402;37.922;2023-09-30T10:21:39;27.81;38.60
75164;HTU21D;63746;45.402;37.922;2023-09-30T10:29:46;27.96;38.51
75164;HTU21D;63746;45.402;37.922;2023-09-30T10:32:13;27.99;38.52
75164;HTU21D;63746;45.402;37.922;2023-09-30T10:34:50;28.03;38.16
75164;HTU21D;63746;45.402;37.922;2023-09-30T10:37:22;28.04;38.28
75164;HTU21D;63746;45.402;37.922;2023-09-30T10:39:58;28.05;38.24
75164;HTU21D;63746;45.402;37.922;2023-09-30T10:42:49;28.06;37.75
75164;HTU21D;63746;45.402;37.922;2023-09-30T10:53:18;28.19;38.35
75164;HTU21D;63746;45.402;37.922;2023-09-30T10:55:45;28.23;38.30
75164;HTU21D;63746;45.402;37.922;2023-09-30T10:58:13;28.26;38.34
75164;HTU21D;63746;45.402;37.922;2023-09-30T11:00:39;28.32;38.35
75164;HTU21D;63746;45.402;37.922;2023-09-30T11:03:06;28.37;38.30
75164;HTU21D;63746;45.402;37.922;2023-09-30T11:05:32;28.39;38.23
75164;HTU21D;63746;45.402;37.922;2023-09-30T11:08:02;28.40;38.19
75164;HTU21D;63746;45.402;37.922;2023-09-30T11:10:29;28.42;38.24
75164;HTU21D;63746;45.402;37.922;2023-09-30T11:12:56;28.44;38.20
75164;HTU21D;63746;45.402;37.922;2023-09-30T11:15:22;28.46;38.15
75164;HTU21D;63746;45.402;37.922;2023-09-30T11:17:49;28.46;38.14
75164;HTU21D;63746;45.402;37.922;2023-09-30T11:20:17;28.46;38.15
75164;HTU21D;63746;45.402;37.922;2023-09-30T11:22:45;28.46;38.14
75164;HTU21D;63746;45.402;37.922;2023-09-30T11:25:18;28.45;37.83
75164;HTU21D;63746;45.402;37.922;2023-09-30T11:27:45;28.46;38.17
75164;HTU21D;63746;45.402;37.922;2023-09-30T11:30:12;28.46;38.18
75164;HTU21D;63746;45.402;37.922;2023-09-30T11:32:38;28.47;38.17
75164;HTU21D;63746;45.402;37.922;2023-09-30T11:35:22;28.52;37.64
75164;HTU21D;63746;45.402;37.922;2023-09-30T11:37:48;28.53;38.11
75164;HTU21D;63746;45.402;37.922;2023-09-30T11:40:14;28.53;38.08
75164;HTU21D;63746;45.402;37.922;2023-09-30T11:42:40;28.50;38.12
75164;HTU21D;63746;45.402;37.922;2023-09-30T11:45:20;28.54;37.66
75164;HTU21D;63746;45.402;37.922;2023-09-30T11:47:47;28.55;38.08
75164;HTU21D;63746;45.402;37.922;2023-09-30T11:50:14;28.56;38.06
75164;HTU21D;63746;45.402;37.922;2023-09-30T11:52:44;28.55;37.88
75164;HTU21D;63746;45.402;37.922;2023-09-30T11:55:12;28.52;38.10
75164;HTU21D;63746;45.402;37.922;2023-09-30T11:57:38;28.52;38.11
75164;HTU21D;63746;45.402;37.922;2023-09-30T12:00:05;28.54;38.05
75164;HTU21D;63746;45.402;37.922;2023-09-30T12:02:39;28.55;38.04
75164;HTU21D;63746;45.402;37.922;2023-09-30T12:05:06;28.56;38.04
75164;HTU21D;63746;45.402;37.922;2023-09-30T12:07:38;28.56;38.06
75164;HTU21D;63746;45.402;37.922;2023-09-30T12:10:07;28.57;38.08
75164;HTU21D;63746;45.402;37.922;2023-09-30T12:12:33;28.58;38.06
75164;HTU21D;63746;45.402;37.922;2023-09-30T12:14:59;28.60;38.03
75164;HTU21D;63746;45.402;37.922;2023-09-30T12:17:25;28.61;38.04
75164;HTU21D;63746;45.402;37.922;2023-09-30T12:19:51;28.63;37.99
75164;HTU21D;63746;45.402;37.922;2023-09-30T12:22:17;28.63;37.93
75164;HTU21D;63746;45.402;37.922;2023-09-30T12:24:43;28.63;37.95
75164;HTU21D;63746;45.402;37.922;2023-09-30T12:27:10;28.61;37.94
75164;HTU21D;63746;45.402;37.922;2023-09-30T12:29:36;28.61;37.94
75164;HTU21D;63746;45.402;37.922;2023-09-30T12:32:04;28.61;37.95
75164;HTU21D;63746;45.402;37.922;2023-09-30T12:34:31;28.59;37.91
75164;HTU21D;63746;45.402;37.922;2023-09-30T12:36:58;28.55;37.95
75164;HTU21D;63746;45.402;37.922;2023-09-30T12:39:25;28.54;37.94
75164;HTU21D;63746;45.402;37.922;2023-09-30T12:41:51;28.52;37.93
75164;HTU21D;63746;45.402;37.922;2023-09-30T12:44:17;28.47;37.91
75164;HTU21D;63746;45.402;37.922;2023-09-30T12:46:43;28.43;37.93
75164;HTU21D;63746;45.402;37.922;2023-09-30T12:49:09;28.39;37.97
75164;HTU21D;63746;45.402;37.922;2023-09-30T12:51:36;28.38;37.97
75164;HTU21D;63746;45.402;37.922;2023-09-30T12:54:05;28.37;38.01
75164;HTU21D;63746;45.402;37.922;2023-09-30T12:56:31;28.35;38.01
75164;HTU21D;63746;45.402;37.922;2023-09-30T12:58:59;28.33;37.97
75164;HTU21D;63746;45.402;37.922;2023-09-30T13:01:25;28.33;38.01
75164;HTU21D;63746;45.402;37.922;2023-09-30T13:03:51;28.32;37.96
75164;HTU21D;63746;45.402;37.922;2023-09-30T13:06:18;28.30;37.95
75164;HTU21D;63746;45.402;37.922;2023-09-30T13:08:45;28.26;37.96
75164;HTU21D;63746;45.402;37.922;2023-09-30T13:11:11;28.27;37.95
75164;HTU21D;63746;45.402;37.922;2023-09-30T13:13:37;28.21;37.95
75164;HTU21D;63746;45.402;37.922;2023-09-30T13:16:03;28.19;37.93
75164;HTU21D;63746;45.402;37.922;2023-09-30T13:18:35;28.14;37.95
75164;HTU21D;63746;45.402;37.922;2023-09-30T13:21:02;28.11;37.96
75164;HTU21D;63746;45.402;37.922;2023-09-30T13:23:29;28.06;37.98
75164;HTU21D;63746;45.402;37.922;2023-09-30T13:25:55;28.03;37.96
75164;HTU21D;63746;45.402;37.922;2023-09-30T13:28:21;28.00;38.00
75164;HTU21D;63746;45.402;37.922;2023-09-30T13:30:47;27.96;38.02
75164;HTU21D;63746;45.402;37.922;2023-09-30T13:33:13;27.93;38.03
75164;HTU21D;63746;45.402;37.922;2023-09-30T13:35:39;27.88;38.03
75164;HTU21D;63746;45.402;37.922;2023-09-30T13:38:05;27.84;38.04
75164;HTU21D;63746;45.402;37.922;2023-09-30T13:40:31;27.81;38.03
75164;HTU21D;63746;45.402;37.922;2023-09-30T13:42:57;27.78;38.04
75164;HTU21D;63746;45.402;37.922;2023-09-30T13:45:24;27.74;38.08
75164;HTU21D;63746;45.402;37.922;2023-09-30T13:47:50;27.69;38.05
75164;HTU21D;63746;45.402;37.922;2023-09-30T13:50:16;27.67;38.08
75164;HTU21D;63746;45.402;37.922;2023-09-30T13:52:42;27.61;38.09
75164;HTU21D;63746;45.402;37.922;2023-09-30T13:55:08;27.58;38.09
75164;HTU21D;63746;45.402;37.922;2023-09-30T13:57:34;27.54;38.09
75164;HTU21D;63746;45.402;37.922;2023-09-30T14:00:04;27.50;38.11
75164;HTU21D;63746;45.402;37.922;2023-09-30T14:02:32;27.46;38.08
75164;HTU21D;63746;45.402;37.922;2023-09-30T14:04:58;27.40;38.11
75164;HTU21D;63746;45.402;37.922;2023-09-30T14:07:24;27.38;38.14
75164;HTU21D;63746;45.402;37.922;2023-09-30T14:09:50;27.34;38.13
75164;HTU21D;63746;45.402;37.922;2023-09-30T14:12:18;27.29;38.12
75164;HTU21D;63746;45.402;37.922;2023-09-30T14:14:44;27.26;38.14
75164;HTU21D;63746;45.402;37.922;2023-09-30T14:17:10;27.23;38.14
75164;HTU21D;63746;45.402;37.922;2023-09-30T14:19:37;27.19;38.14
75164;HTU21D;63746;45.402;37.922;2023-09-30T14:22:05;27.14;38.18
75164;HTU21D;63746;45.402;37.922;2023-09-30T14:24:34;27.10;38.04
75164;HTU21D;63746;45.402;37.922;2023-09-30T14:27:04;27.05;38.08
75164;HTU21D;63746;45.402;37.922;2023-09-30T14:29:31;27.01;38.21
75164;HTU21D;63746;45.402;37.922;2023-09-30T14:31:57;26.96;38.20
75164;HTU21D;63746;45.402;37.922;2023-09-30T14:34:24;26.92;38.21
75164;HTU21D;63746;45.402;37.922;2023-09-30T14:36:51;26.86;38.22
75164;HTU21D;63746;45.402;37.922;2023-09-30T14:39:17;26.81;38.23
75164;HTU21D;63746;45.402;37.922;2023-09-30T14:41:44;26.78;38.25
75164;HTU21D;63746;45.402;37.922;2023-09-30T14:44:10;26.72;38.26
75164;HTU21D;63746;45.402;37.922;2023-09-30T14:46:38;26.66;38.24
75164;HTU21D;63746;45.402;37.922;2023-09-30T14:49:05;26.61;38.28
75164;HTU21D;63746;45.402;37.922;2023-09-30T14:51:34;26.56;38.27
75164;HTU21D;63746;45.402;37.922;2023-09-30T14:54:01;26.50;38.30
75164;HTU21D;63746;45.402;37.922;2023-09-30T14:56:27;26.46;38.34
75164;HTU21D;63746;45.402;37.922;2023-09-30T14:58:53;26.40;38.35
75164;HTU21D;63746;45.402;37.922;2023-09-30T15:01:19;26.33;38.36
75164;HTU21D;63746;45.402;37.922;2023-09-30T15:03:46;26.30;38.36
75164;HTU21D;63746;45.402;37.922;2023-09-30T15:06:12;26.24;38.36
75164;HTU21D;63746;45.402;37.922;2023-09-30T15:08:38;26.18;38.36
75164;HTU21D;63746;45.402;37.922;2023-09-30T15:11:04;26.13;38.39
75164;HTU21D;63746;45.402;37.922;2023-09-30T15:13:30;26.08;38.40
75164;HTU21D;63746;45.402;37.922;2023-09-30T15:15:56;26.03;38.41
75164;HTU21D;63746;45.402;37.922;2023-09-30T15:18:22;25.96;38.42
75164;HTU21D;63746;45.402;37.922;2023-09-30T15:20:51;25.91;38.36